Weather observations for the past three days for
Cumberland
Metric (Imperial)
Date Time (cdt) Wind (kph) Vis. (km) Weather Sky Cond. Temperature (ºC) Relative Humidity Wind Chill (°C) Heat Index (°C) Pressure Precipitation (cm)
Air Dwpt 6 hour altimeter (cm) sea level (mb) 1 hr 3 hr 6 hr
Max. Min.
07 15:15 SW 17 G 33 16.09 Mostly Cloudy BKN080 12 -6 28% 75.74 0.0
07 14:55 NW 28 G 39 16.09 Mostly Cloudy BKN080 11 -6 30% 75.77 0.0
07 14:35 NW 6 11.27 Overcast OVC080 11 -5 32% 75.79 0.0
07 14:15 N 9 16.09 Overcast OVC080 11 -6 30% 75.79 0.0
07 13:55 W 24 G 31 16.09 Overcast OVC080 11 -6 30% 75.79 0.0
07 13:35 W 20 G 30 16.09 Mostly Cloudy BKN080 11 -6 30% 75.79 0.0
07 13:15 NW 13 16.09 Mostly Cloudy BKN070 10 -6 32% 8 75.82 0.0
07 12:55 N 7 16.09 Overcast OVC070 10 -6 32% 9 75.84 0.0
07 12:35 W 15 16.09 Mostly Cloudy BKN070 11 -6 30% 75.84 0.0
07 12:15 NW 13 16.09 Mostly Cloudy BKN070 9 -6 34% 7 75.87 0.0
07 11:55 NW 9 16.09 Mostly Cloudy BKN070 10 -5 35% 9 75.87 0.0
07 11:35 NW 17 16.09 Mostly Cloudy BKN070 10 -6 32% 8 75.9 0.0
07 11:15 N 15 16.09 Partly Cloudy SCT070 9 -6 34% 7 75.9 0.0
07 10:55 NE 6 G 31 16.09 Partly Cloudy SCT060 8 -6 37% 75.9 0.0
07 10:35 NW 17 16.09 Mostly Cloudy BKN060 8 -5 40% 6 75.9 0.0
07 10:15 NW 11 16.09 Partly Cloudy SCT050 8 -5 40% 6 75.9 0.0
07 09:55 NW 9 G 26 8.05 Mostly Cloudy with Haze BKN050 7 -3 49% 5 75.92 0.0
07 09:35 W 17 16.09 Partly Cloudy SCT050 8 -2 50% 6 75.92 0.0
07 09:15 W 11 G 26 16.09 Fair CLR 7 -3 49% 5 75.92 0.0
07 08:55 NW 13 16.09 Fair CLR 6 -2 57% 4 75.95 0.0
07 08:35 W 11 16.09 Partly Cloudy SCT080 6 -2 57% 4 75.97 0.0
07 08:15 W 9 16.09 Mostly Cloudy BKN080 5 -1 66% 3 75.97 0.0
07 07:55 W 11 16.09 Overcast OVC080 5 -1 66% 3 75.97 0.0
07 07:35 W 7 16.09 Overcast OVC080 4 -1 70% 2 75.97 0.0
07 06:55 W 7 16.09 Overcast OVC080 3 -1 75% 1 75.97 0.0
07 06:35 W 11 16.09 Overcast OVC080 3 -1 75% 0 75.95 0.0
07 06:15 W 9 16.09 Overcast OVC070 3 -1 75% 1 75.95 0.0
07 05:55 W 9 16.09 Overcast OVC070 3 -1 75% 1 75.95 0.0
07 05:35 W 11 16.09 Overcast SCT055 OVC070 3 -1 75% 0 75.95 0.0
07 05:15 W 9 16.09 Overcast OVC055 3 -1 75% 1 75.95 0.0
07 04:55 SW 9 16.09 Overcast OVC065 3 0 81% 1 75.92 0.0
07 04:35 SW 7 16.09 Overcast OVC065 2 0 87% 0 75.95 0.0
07 04:15 SW 7 16.09 Overcast OVC065 2 0 87% 0 75.92 0.0
07 03:55 SW 6 16.09 Overcast OVC055 2 0 87% 75.92 0.0
07 03:35 Calm 16.09 Overcast OVC055 3 0 81% 75.92 0.0
07 03:15 Calm 16.09 Overcast OVC055 3 0 81% 75.92 0.0
07 02:55 SW 6 16.09 Overcast OVC055 3 0 81% 75.95 0.0
07 02:35 SW 7 16.09 Overcast OVC055 3 0 81% 1 75.95 0.0
07 02:15 SW 7 16.09 Overcast OVC055 3 0 81% 1 75.97 0.0
07 01:55 SW 7 16.09 Overcast OVC055 3 0 81% 1 76 0.0
07 01:35 SW 7 16.09 Overcast OVC055 3 -1 75% 1 76 0.0
07 01:15 SW 7 16.09 Overcast OVC055 3 -1 75% 1 76.02 0.0
07 00:55 SW 6 16.09 Overcast OVC055 3 -1 75% 76.02 0.0
07 00:35 SW 6 16.09 Overcast OVC055 3 0 81% 76.02 0.0
07 00:15 SW 6 16.09 Overcast OVC055 3 -1 75% 76.02 0.0
06 23:55 SW 7 16.09 Overcast OVC055 3 -1 75% 1 76.05 0.0
06 23:35 SW 7 16.09 Overcast OVC055 3 -1 75% 1 76.05 0.0
06 23:15 SW 6 16.09 Overcast OVC055 3 -1 75% 76.05 0.0
06 22:55 SW 6 16.09 Overcast OVC055 4 -1 70% 76.07 0.0
06 22:35 SW 7 16.09 Overcast OVC055 3 -1 75% 1 76.07 0.0
06 22:15 SW 9 16.09 Overcast OVC055 4 -1 70% 2 76.1 0.0
06 21:35 SW 7 16.09 Overcast OVC055 4 -2 65% 2 76.1 0.0
06 21:15 W 6 16.09 Overcast OVC055 4 -2 65% 76.1 0.0
06 20:55 W 6 16.09 Overcast OVC055 5 -2 61% 76.1 0.0
06 20:35 W 7 16.09 Overcast OVC055 5 -2 61% 4 76.1 0.0
06 20:15 W 11 16.09 Overcast OVC049 5 -3 57% 3 76.1 0.0
06 19:55 W 11 16.09 Overcast OVC049 5 -3 57% 3 76.1 0.0
06 19:35 W 17 16.09 Overcast OVC049 5 -3 57% 2 76.1 0.0
06 19:15 W 17 16.09 Overcast OVC049 5 -3 57% 2 76.1 0.0
06 18:55 W 19 16.09 Overcast OVC049 5 -3 57% 2 76.1 0.0
06 18:35 W 17 16.09 Overcast OVC049 6 -3 53% 3 76.1 0.0
06 18:15 W 19 16.09 Overcast OVC049 6 -3 53% 3 76.1 0.0
06 17:55 W 17 16.09 Overcast OVC049 6 -3 53% 3 76.1 0.0
06 17:35 W 17 16.09 Overcast OVC049 6 -3 53% 3 76.12 0.0
06 16:55 W 24 G 31 16.09 Overcast OVC049 6 -3 53% 2 76.1 0.0
06 16:35 W 19 G 30 16.09 Overcast OVC047 6 -3 53% 3 76.1 0.0
06 16:15 W 19 G 26 16.09 Overcast OVC047 6 -2 57% 3 76.1 0.0
06 15:55 W 20 G 30 16.09 Overcast OVC047 6 -3 53% 3 76.12 0.0
06 15:35 W 20 G 30 16.09 Overcast OVC047 6 -3 53% 3 76.12 0.0
06 15:15 W 17 16.09 Overcast OVC047 6 -3 53% 3 76.12 0.0
06 14:55 W 20 G 28 16.09 Overcast OVC047 6 -2 57% 3 76.12 0.0
06 14:35 NW 19 G 26 16.09 Overcast OVC043 5 -3 57% 2 76.15 0.0
06 14:15 W 24 G 31 16.09 Overcast OVC043 5 -3 57% 1 76.15 0.0
06 13:55 W 22 G 30 16.09 Overcast OVC041 5 -2 61% 1 76.15 0.0
06 13:35 W 15 16.09 Overcast OVC041 5 -3 57% 2 76.15 0.0
06 13:15 W 24 16.09 Overcast OVC043 5 -3 57% 1 76.15 0.0
06 12:55 W 19 16.09 Overcast OVC043 5 -3 57% 2 76.15 0.0
06 12:35 W 13 16.09 Overcast OVC043 5 -3 57% 2 76.15 0.0
06 12:15 W 17 G 33 16.09 Overcast OVC043 5 -3 57% 2 76.15 0.0
06 11:55 NW 17 16.09 Overcast OVC043 5 -3 57% 2 76.15 0.0
06 11:35 NW 20 G 30 16.09 Overcast OVC043 4 -3 61% 0 76.15 0.0
06 11:15 W 19 G 31 16.09 Overcast OVC043 4 -3 61% 0 76.17 0.0
06 10:55 NW 15 16.09 Overcast OVC043 4 -4 56% 1 76.15 0.0
06 10:35 NW 20 G 30 16.09 Overcast OVC043 4 -4 56% 0 76.15 0.0
06 10:15 NW 19 16.09 Overcast OVC043 4 -4 56% 0 76.15 0.0
06 09:55 NW 22 G 28 16.09 Overcast OVC043 4 -5 52% -0 76.15 0.0
06 09:35 N 19 G 35 16.09 Overcast OVC043 3 -5 56% -1 76.15 0.0
06 09:15 NW 17 16.09 Overcast OVC043 3 -5 56% -1 76.12 0.0
06 08:55 NW 22 G 30 16.09 Overcast OVC043 3 -5 56% -1 76.12 0.0
06 08:35 NW 19 G 28 16.09 Overcast OVC041 3 -5 56% -1 76.12 0.0
06 08:15 N 19 16.09 Overcast OVC041 3 -5 56% -1 76.12 0.0
06 07:55 NW 13 16.09 Overcast OVC041 3 -5 56% 0 76.1 0.0
06 07:15 NW 13 16.09 Overcast OVC039 2 -4 65% -1 76.07 0.0
06 06:55 NW 15 16.09 Overcast OVC039 2 -3 70% -2 76.07 0.0
06 06:35 W 19 16.09 Overcast OVC039 2 -3 70% -2 76.05 0.0
06 05:55 NW 19 16.09 Overcast OVC039 2 -3 70% -2 76 0.0
06 05:35 N 15 16.09 Overcast OVC039 2 -3 70% -2 76 0.0
06 05:15 NW 9 16.09 Overcast OVC039 2 -3 70% -0 76.02 0.0
06 04:55 NW 13 16.09 Overcast OVC039 3 -3 65% 0 76.02 0.0
06 04:35 NW 9 16.09 Overcast OVC039 3 -3 65% 1 76 0.0
06 04:15 N 9 16.09 Overcast OVC041 2 -3 70% -0 76 0.0
06 03:55 N 9 16.09 Overcast OVC041 3 -4 60% 1 76 0.0
06 03:35 N 13 16.09 Overcast OVC041 3 -4 60% 0 75.97 0.0
06 03:15 N 9 16.09 Overcast OVC041 2 -3 70% -0 75.97 0.0
06 02:55 NW 11 16.09 Overcast OVC041 2 -3 70% -1 75.97 0.0
06 02:35 NW 11 16.09 Overcast OVC039 2 -3 70% -1 75.97 0.0
06 02:15 NW 13 16.09 Partly Cloudy SCT039 1 -3 75% -2 75.97 0.0
06 01:55 NW 9 16.09 Fair CLR 1 -3 75% -2 75.97 0.0
06 01:35 NW 9 16.09 Fair CLR 1 -4 70% -2 75.97 0.0
06 01:15 NW 11 16.09 Fair CLR 1 -4 70% -2 75.97 0.0
06 00:55 NW 9 16.09 Fair CLR 2 -3 70% -0 75.97 0.0
06 00:35 NW 20 16.09 Fair CLR 2 -4 65% -2 75.95 0.0
06 00:15 NW 17 16.09 Fair CLR 3 -4 60% -1 75.95 0.0
05 23:55 NW 24 G 30 16.09 Mostly Cloudy BKN065 3 -4 60% -2 75.92 0.0
05 23:35 NW 19 16.09 Overcast OVC065 4 -4 56% 0 75.92 0.0
05 23:15 NW 20 G 33 16.09 Overcast OVC065 4 -3 61% 0 75.92 0.0
05 22:55 NW 19 G 26 16.09 Overcast OVC065 5 -3 57% 2 75.92 0.0
05 22:35 N 19 16.09 Overcast OVC065 5 -3 57% 2 75.9 0.0
05 22:15 N 20 G 26 16.09 Overcast OVC065 5 -3 57% 1 75.9 0.0
05 21:35 NW 22 16.09 Overcast OVC065 6 -3 53% 2 75.84 0.0
05 21:15 NW 17 16.09 Mostly Cloudy BKN065 6 -3 53% 3 75.84 0.0
05 20:55 NW 20 16.09 Partly Cloudy SCT065 6 -3 53% 3 75.82 0.0
05 20:35 NW 13 16.09 Partly Cloudy SCT055 6 -2 57% 4 75.79 0.0
05 20:15 NW 22 G 31 16.09 Partly Cloudy SCT055 7 -3 49% 4 75.79 0.0
05 19:55 NW 20 G 26 16.09 Partly Cloudy SCT070 7 -2 53% 4 75.77 0.0
05 19:35 NW 17 16.09 Mostly Cloudy SCT060 BKN070 8 -2 50% 6 75.74 0.0
05 19:15 NW 22 16.09 Overcast BKN060 OVC075 7 -2 53% 4 75.74 0.0
05 18:55 W 22 G 39 16.09 Overcast OVC060 8 -3 46% 5 75.72 0.0
05 18:35 W 17 16.09 Overcast SCT060 BKN070 OVC090 9 -3 43% 7 75.72 0.0
05 18:15 W 19 G 31 16.09 Mostly Cloudy SCT070 BKN090 9 -3 43% 7 75.72 0.0
05 17:55 W 19 G 35 16.09 Mostly Cloudy SCT060 BKN090 9 -2 46% 7 75.72 0.0
05 17:35 W 26 16.09 Mostly Cloudy SCT060 BKN090 9 -3 43% 6 75.72 0.0
05 17:15 W 26 G 44 16.09 Overcast BKN060 BKN075 OVC090 8 -3 46% 5 75.72 0.0
05 16:55 W 22 G 31 16.09 Overcast BKN060 OVC075 9 -3 43% 6 75.72 0.0
05 16:35 NW 19 G 28 16.09 Overcast BKN060 OVC075 8 -3 46% 5 75.72 0.0
05 16:15 NW 19 G 30 16.09 Overcast BKN060 OVC080 8 -3 46% 5 75.72 0.0
05 15:55 W 22 G 37 16.09 Overcast SCT060 OVC070 9 -3 43% 6 75.72 0.0
05 15:35 W 19 G 31 16.09 Overcast SCT060 OVC070 8 -3 46% 5 75.74 0.0
05 15:15 NW 24 G 30 16.09 Overcast BKN060 OVC070 8 -3 46% 5 75.74 0.0
05 14:55 W 20 G 39 16.09 Overcast BKN060 OVC070 8 -2 50% 5 75.74 0.0
05 14:35 W 24 G 41 16.09 Overcast SCT055 OVC065 7 -2 53% 4 75.77 0.0
05 14:15 W 22 G 35 16.09 Overcast SCT055 OVC065 8 -3 46% 5 75.74 0.0
05 13:55 NW 24 16.09 Overcast SCT050 OVC065 7 -2 53% 4 75.74 0.0
05 13:35 W 26 G 37 16.09 Overcast SCT049 OVC060 8 -2 50% 5 75.74 0.0
05 13:15 NW 26 G 31 16.09 Overcast SCT049 OVC060 7 -2 53% 3 75.74 0.0
05 12:55 NW 20 16.09 Overcast SCT045 OVC060 6 -3 53% 3 75.74 0.0
05 12:35 NW 22 G 37 16.09 Overcast OVC050 6 -3 53% 2 75.74 0.0
05 12:15 NW 31 G 39 16.09 Overcast BKN050 OVC060 6 -3 53% 2 75.74 0.0
05 11:50 NW 31 G 48 16.09 Overcast SCT047 OVC060 6 -3 53% 2 75.74 0.0
05 11:35 NW 28 G 46 16.09 Overcast BKN047 BKN060 OVC070 6 -3 53% 2 75.72 0.0
05 11:15 NW 20 G 31 16.09 Overcast BKN047 BKN060 OVC070 6 -3 53% 3 75.72 0.0
05 10:55 W 28 G 41 16.09 Overcast SCT047 OVC070 6 -3 53% 2 75.72 0.0
05 10:35 NW 24 G 33 16.09 Overcast SCT047 OVC070 6 -2 57% 2 75.72 0.0
05 10:15 W 33 G 43 16.09 Overcast and Breezy SCT045 OVC070 6 -3 53% 1 75.69 0.0
05 09:55 W 35 G 46 16.09 Mostly Cloudy and Breezy SCT045 BKN070 5 -3 57% 0 75.67 0.0
05 09:30 NW 20 16.09 Partly Cloudy SCT070 5 -3 57% 1 75.67 0.0
05 09:15 NW 24 G 33 16.09 Fair CLR 5 -3 57% 1 75.67 0.0
05 08:55 NW 20 16.09 Fair CLR 5 -3 57% 1 75.64 0.0
05 08:35 NW 24 G 33 16.09 Fair CLR 4 -3 61% -0 75.64 0.0
05 08:15 NW 17 16.09 Fair CLR 3 -3 65% -1 75.64 0.0
05 07:55 NW 24 G 31 16.09 Fair CLR 3 -3 65% -2 75.62 0.0
05 07:35 NW 22 16.09 Fair CLR 3 -3 65% -1 75.59 0.0
05 07:15 NW 20 G 33 16.09 Fair CLR 3 -2 70% -1 75.57 0.0
05 06:35 NW 15 16.09 Fair CLR 2 -2 75% -2 75.51 0.0
05 06:15 NW 13 16.09 Fair CLR 2 -2 75% -1 75.49 0.0
05 05:55 NW 11 16.09 Fair CLR 2 -2 75% -1 75.46 0.0
05 05:35 NW 13 16.09 Fair CLR 2 -1 81% -1 75.46 0.0
05 05:15 W 17 16.09 Fair CLR 2 -1 81% -2 75.46 0.0
05 04:55 W 17 16.09 Fair CLR 2 -1 81% -2 75.46 0.0
05 04:35 W 17 G 26 16.09 Fair CLR 3 -1 75% -1 75.46 0.0
05 04:15 W 15 16.09 Fair CLR 3 -2 70% -0 75.44 0.0
05 03:55 NW 17 16.09 Fair CLR 3 -2 70% -1 75.41 0.0
05 03:35 NW 15 16.09 Fair CLR 3 -1 75% -0 75.39 0.0
05 03:15 W 17 16.09 Fair CLR 3 -1 75% -1 75.36 0.0
05 02:55 NW 20 16.09 Fair CLR 4 -1 70% 0 75.36 0.0
05 02:35 W 22 G 31 16.09 Fair CLR 4 -1 70% -0 75.36 0.0
05 02:15 W 19 G 28 16.09 Fair CLR 4 -1 70% 0 75.36 0.0
05 01:55 W 17 16.09 Fair CLR 4 -1 70% 1 75.36 0.0
05 01:35 W 17 16.09 Fair CLR 4 -1 70% 1 75.36 0.0
05 01:15 W 17 16.09 Fair CLR 5 -1 66% 2 75.36 0.0
05 00:55 W 13 16.09 Fair CLR 4 -1 70% 1 75.36 0.0
05 00:35 W 13 16.09 Fair CLR 4 -1 70% 1 75.36 0.0
05 00:15 W 13 16.09 Fair CLR 5 -2 61% 2 75.34 0.0
04 23:55 W 13 16.09 Partly Cloudy SCT070 5 -2 61% 2 75.34 0.0
04 23:35 W 19 16.09 Mostly Cloudy BKN070 5 -2 61% 2 75.34 0.0
04 23:15 W 11 16.09 Mostly Cloudy BKN070 5 -1 66% 3 75.34 0.0
04 22:50 W 13 16.09 Partly Cloudy SCT070 5 -1 66% 2 75.34 0.0
04 22:35 W 15 16.09 Partly Cloudy SCT070 6 -2 57% 3 75.34 0.0
04 22:15 W 15 16.09 Overcast OVC070 7 -2 53% 5 75.34 0.0
04 21:55 W 13 16.09 Overcast OVC070 6 -2 57% 4 75.34 0.0
04 21:35 NW 17 16.09 Partly Cloudy SCT070 6 -2 57% 3 75.34 0.0
04 21:15 NW 17 16.09 Partly Cloudy SCT070 7 -3 49% 4 75.31 0.0
04 20:55 NW 22 G 28 16.09 Overcast OVC070 8 -3 46% 5 75.29 0.0
04 20:35 NW 24 G 41 16.09 Overcast OVC070 8 -2 50% 5 75.26 0.0
04 20:15 NW 31 G 48 16.09 Mostly Cloudy BKN070 8 -2 50% 4 75.23 0.0
04 19:55 NW 30 G 46 16.09 Mostly Cloudy BKN060 8 -2 50% 4 75.21 0.0
04 19:35 NW 28 G 44 16.09 Mostly Cloudy BKN060 9 -2 46% 6 75.18 0.0
04 19:15 NW 26 G 41 16.09 Partly Cloudy SCT060 9 -2 46% 6 75.16 0.0
04 18:55 NW 33 G 44 16.09 Partly Cloudy and Breezy SCT060 10 -2 43% 7 75.16 0.0
04 18:35 NW 31 G 43 16.09 Partly Cloudy SCT060 10 -1 47% 7 75.13 0.0
04 18:15 NW 28 G 54 16.09 Partly Cloudy SCT060 11 -1 44% 75.11 0.0
04 17:55 NW 28 G 43 16.09 Partly Cloudy SCT060 11 -1 44% 75.08 0.0
04 17:35 NW 31 G 44 16.09 Partly Cloudy SCT060 12 0 44% 75.06 0.0
04 17:15 NW 31 G 44 16.09 Partly Cloudy SCT060 12 0 44% 75.03 0.0
04 16:55 NW 33 G 46 16.09 Mostly Cloudy and Breezy BKN060 12 0 44% 75.01 0.0
04 16:35 NW 28 G 43 16.09 Mostly Cloudy BKN060 13 0 41% 74.98 0.0
04 16:15 NW 33 G 50 16.09 Mostly Cloudy and Breezy SCT065 BKN070 13 0 41% 74.98 0.0
04 15:55 NW 31 G 48 16.09 Mostly Cloudy BKN065 14 1 41% 74.96 0.0
04 15:35 NW 33 G 54 16.09 Partly Cloudy and Breezy SCT065 13 1 44% 74.93 0.0
Date Time (cdt) Wind (kph) Vis. (km) Weather Sky Cond. Air Dwpt Max. Min. Relative Humidity Wind Chill (°C) Heat Index (°C) altimeter (cm) sea level (mb) 1 hr 3 hr 6 hr
6 hour
Temperature (ºC) Pressure Precipitation (cm)